Terminal Aerodrome Forecast
Issued by NWS Charleston, WV

Current Version | Previous Version | Text Only | Print | Product List | Glossary Off
Versions: 1 2 3 4 5 6 7 8 9 10 11 12 13 14 15 16 17 18 19 20 21 22 23 24 25 26 27 28 29 30 31 32 33

000
FTUS41 KRLX 310500 RRA
TAFHTS
TAF
KHTS 310543Z 3106/0106 19010KT 3SM SHRA SCT010 BKN040 OVC090
      TEMPO 3106/3109 6SM SHRA
     FM311100 VRB03KT P6SM VCSH OVC022
     FM311600 22007KT 3SM SHRA VCTS OVC024CB PROB30 3116/3119 2SM
      TSRA OVC030CB
     FM312200 20005KT 6SM -SHRA BR VCTS OVC040CB
     FM010000 18005KT 5SM SHRA BR OVC035
     FM010300 23008KT P6SM OVC017=

USA.gov is the U.S. government's official web portal to all federal, state and local government web resources and services.